Time,TemperatureF,DewpointF,PressureIn,WindDirection,WindDirectionDegrees,WindSpeedMPH,WindSpeedGustMPH,Humidity,HourlyPrecipIn,Conditions,Clouds,dailyrainin,SoftwareType,DateUTC
2013-06-16 00:02:00,68.7,38.5,26.93,NE,41,4.0,4.0,33,0.00,,---,0.00,VWS V14.01,2013-06-16 05:02:00,
2013-06-16 00:07:00,68.2,38.0,26.93,NNE,28,2.2,2.2,33,0.00,,---,0.00,VWS V14.01,2013-06-16 05:07:00,
2013-06-16 00:12:00,68.0,37.8,26.93,NE,37,2.2,2.7,33,0.00,,---,0.00,VWS V14.01,2013-06-16 05:12:00,
2013-06-16 00:17:00,68.0,37.8,26.96,NE,42,2.7,2.7,33,0.00,,---,0.00,VWS V14.01,2013-06-16 05:17:00,
2013-06-16 00:23:00,68.0,37.8,26.96,NE,44,3.1,3.1,33,0.00,,---,0.00,VWS V14.01,2013-06-16 05:23:00,
2013-06-16 00:28:00,68.2,38.0,26.96,NE,41,3.6,3.6,33,0.00,,---,0.00,VWS V14.01,2013-06-16 05:28:00,
2013-06-16 00:33:00,68.2,38.0,26.96,NE,45,3.1,3.1,33,0.00,,---,0.00,VWS V14.01,2013-06-16 05:33:00,
2013-06-16 00:38:00,68.0,37.8,26.96,NE,38,4.0,4.0,33,0.00,,---,0.00,VWS V14.01,2013-06-16 05:38:00,
2013-06-16 00:43:00,67.8,37.7,26.96,NE,43,4.0,4.0,33,0.00,,---,0.00,VWS V14.01,2013-06-16 05:43:00,
2013-06-16 00:48:00,67.8,37.7,26.96,NNE,32,4.0,4.0,33,0.00,,---,0.00,VWS V14.01,2013-06-16 05:48:00,
2013-06-16 00:53:00,67.8,37.7,26.96,NE,46,4.9,4.9,33,0.00,,---,0.00,VWS V14.01,2013-06-16 05:53:00,
2013-06-16 00:58:00,67.8,37.7,26.96,NE,36,5.4,5.4,33,0.00,,---,0.00,VWS V14.01,2013-06-16 05:58:00,
2013-06-16 01:03:00,67.6,37.5,26.96,ENE,61,4.9,4.9,33,0.00,,---,0.00,VWS V14.01,2013-06-16 06:03:00,
2013-06-16 01:09:00,67.5,37.4,26.96,NE,54,4.0,4.0,33,0.00,,---,0.00,VWS V14.01,2013-06-16 06:09:00,
2013-06-16 01:14:00,67.3,37.2,26.96,NE,46,5.4,6.3,33,0.00,,---,0.00,VWS V14.01,2013-06-16 06:14:00,
2013-06-16 01:19:00,67.3,37.2,26.96,NE,35,4.0,4.0,33,0.00,,---,0.00,VWS V14.01,2013-06-16 06:19:00,
2013-06-16 01:24:00,67.5,37.4,26.96,East,91,6.3,6.3,33,0.00,,---,0.00,VWS V14.01,2013-06-16 06:24:00,
2013-06-16 01:29:00,67.5,37.4,26.96,NE,48,6.3,6.3,33,0.00,,---,0.00,VWS V14.01,2013-06-16 06:29:00,
2013-06-16 01:34:00,67.1,37.1,26.96,NE,37,4.0,4.0,33,0.00,,---,0.00,VWS V14.01,2013-06-16 06:34:00,
2013-06-16 01:39:00,66.9,36.9,26.96,NE,41,5.8,5.8,33,0.00,,---,0.00,VWS V14.01,2013-06-16 06:39:00,
2013-06-16 01:44:00,66.9,36.9,26.96,NE,48,6.3,6.3,33,0.00,,---,0.00,VWS V14.01,2013-06-16 06:44:00,
2013-06-16 01:50:00,66.9,36.9,26.96,NE,47,4.9,5.4,33,0.00,,---,0.00,VWS V14.01,2013-06-16 06:50:00,
2013-06-16 01:55:00,66.7,36.8,26.96,NNE,27,3.1,5.4,33,0.00,,---,0.00,VWS V14.01,2013-06-16 06:55:00,
2013-06-16 02:00:00,66.6,36.6,26.96,ENE,61,5.8,5.8,33,0.00,,---,0.00,VWS V14.01,2013-06-16 07:00:00,
2013-06-16 02:05:00,66.6,36.6,26.96,East,79,5.4,5.4,33,0.00,,---,0.00,VWS V14.01,2013-06-16 07:05:00,
2013-06-16 02:10:00,66.4,36.4,26.96,NE,35,4.0,4.0,33,0.00,,---,0.00,VWS V14.01,2013-06-16 07:10:00,
2013-06-16 02:15:00,66.2,36.3,26.99,NE,45,4.9,4.9,33,0.00,,---,0.00,VWS V14.01,2013-06-16 07:15:00,
2013-06-16 02:20:00,66.2,36.3,26.99,ENE,67,2.7,4.0,33,0.00,,---,0.00,VWS V14.01,2013-06-16 07:20:00,
2013-06-16 02:25:00,66.0,36.1,26.99,NE,48,3.1,3.1,33,0.00,,---,0.00,VWS V14.01,2013-06-16 07:25:00,
2013-06-16 02:30:00,65.8,36.0,26.96,NE,43,2.7,3.1,33,0.00,,---,0.00,VWS V14.01,2013-06-16 07:30:00,
2013-06-16 02:35:00,65.7,35.8,26.96,ENE,60,2.7,2.7,33,0.00,,---,0.00,VWS V14.01,2013-06-16 07:35:00,
2013-06-16 02:40:00,65.5,35.6,26.96,NNE,28,3.1,4.9,33,0.00,,---,0.00,VWS V14.01,2013-06-16 07:40:00,
2013-06-16 02:45:00,65.3,35.5,26.96,NE,43,3.6,3.6,33,0.00,,---,0.00,VWS V14.01,2013-06-16 07:45:00,
2013-06-16 02:50:00,65.1,35.3,26.96,NE,40,3.1,3.1,33,0.00,,---,0.00,VWS V14.01,2013-06-16 07:50:00,
2013-06-16 02:55:00,64.9,35.2,26.96,NE,39,4.0,4.0,33,0.00,,---,0.00,VWS V14.01,2013-06-16 07:55:00,
2013-06-16 03:00:00,64.6,34.8,26.96,NE,36,3.1,3.1,33,0.00,,---,0.00,VWS V14.01,2013-06-16 08:00:00,
2013-06-16 03:05:00,64.4,34.7,26.96,NE,40,4.0,4.0,33,0.00,,---,0.00,VWS V14.01,2013-06-16 08:05:00,
2013-06-16 03:10:00,64.2,35.3,26.96,NE,39,2.7,2.7,34,0.00,,---,0.00,VWS V14.01,2013-06-16 08:10:00,
2013-06-16 03:15:00,64.0,35.1,26.96,NE,39,3.1,3.1,34,0.00,,---,0.00,VWS V14.01,2013-06-16 08:15:00,
2013-06-16 03:20:00,63.9,35.0,26.96,NNE,30,2.2,3.1,34,0.00,,---,0.00,VWS V14.01,2013-06-16 08:20:00,
2013-06-16 03:25:00,63.9,35.0,26.96,NNE,18,3.6,3.6,34,0.00,,---,0.00,VWS V14.01,2013-06-16 08:25:00,
2013-06-16 03:30:00,63.5,34.7,26.96,NNE,26,2.2,3.1,34,0.00,,---,0.00,VWS V14.01,2013-06-16 08:30:00,
2013-06-16 03:36:00,63.5,34.7,26.96,NE,45,2.2,3.6,34,0.00,,---,0.00,VWS V14.01,2013-06-16 08:36:00,
2013-06-16 03:42:00,63.7,34.8,26.96,NNE,29,5.4,5.4,34,0.00,,---,0.00,VWS V14.01,2013-06-16 08:42:00,
2013-06-16 03:47:00,63.7,34.8,26.96,NE,42,4.0,4.9,34,0.00,,---,0.00,VWS V14.01,2013-06-16 08:47:00,
2013-06-16 03:52:00,63.5,34.7,26.99,NE,46,2.2,2.2,34,0.00,,---,0.00,VWS V14.01,2013-06-16 08:52:00,
2013-06-16 03:57:00,63.1,34.3,26.99,NE,36,3.1,3.1,34,0.00,,---,0.00,VWS V14.01,2013-06-16 08:57:00,
2013-06-16 04:02:00,63.1,34.3,26.99,NE,50,3.6,4.0,34,0.00,,---,0.00,VWS V14.01,2013-06-16 09:02:00,
2013-06-16 04:07:00,63.1,34.3,26.99,NE,48,2.2,4.0,34,0.00,,---,0.00,VWS V14.01,2013-06-16 09:07:00,
2013-06-16 04:12:00,62.8,34.0,26.99,NE,51,2.2,2.2,34,0.00,,---,0.00,VWS V14.01,2013-06-16 09:12:00,
2013-06-16 04:17:00,62.6,33.9,26.99,NNE,28,2.7,2.7,34,0.00,,---,0.00,VWS V14.01,2013-06-16 09:17:00,
2013-06-16 04:22:00,62.8,34.0,26.99,NE,37,2.7,2.7,34,0.00,,---,0.00,VWS V14.01,2013-06-16 09:22:00,
2013-06-16 04:27:00,62.8,34.0,26.99,NNE,19,2.7,3.1,34,0.00,,---,0.00,VWS V14.01,2013-06-16 09:27:00,
2013-06-16 04:32:00,63.0,34.2,26.99,NE,41,3.6,3.6,34,0.00,,---,0.00,VWS V14.01,2013-06-16 09:32:00,
2013-06-16 04:37:00,63.1,34.3,26.99,NE,41,3.1,3.1,34,0.00,,---,0.00,VWS V14.01,2013-06-16 09:37:00,
2013-06-16 04:42:00,63.3,34.5,26.99,NE,43,3.1,3.1,34,0.00,,---,0.00,VWS V14.01,2013-06-16 09:42:00,
2013-06-16 04:47:00,63.3,34.5,26.99,NE,41,3.1,3.1,34,0.00,,---,0.00,VWS V14.01,2013-06-16 09:47:00,
2013-06-16 04:52:00,63.3,34.5,26.99,NE,43,3.6,3.6,34,0.00,,---,0.00,VWS V14.01,2013-06-16 09:52:00,
2013-06-16 04:57:00,63.5,34.7,26.99,NE,44,2.7,2.7,34,0.00,,---,0.00,VWS V14.01,2013-06-16 09:57:00,
2013-06-16 05:02:00,63.3,34.5,26.99,NE,39,2.2,2.2,34,0.00,,---,0.00,VWS V14.01,2013-06-16 10:02:00,
2013-06-16 05:07:00,63.5,34.7,26.99,NE,41,3.1,3.1,34,0.00,,---,0.00,VWS V14.01,2013-06-16 10:07:00,
2013-06-16 05:12:00,63.3,34.5,26.99,NE,39,3.6,3.6,34,0.00,,---,0.00,VWS V14.01,2013-06-16 10:12:00,
2013-06-16 05:17:00,63.1,34.3,26.99,NE,44,0.0,0.0,34,0.00,,---,0.00,VWS V14.01,2013-06-16 10:17:00,
2013-06-16 05:22:00,62.6,33.9,26.99,NE,44,0.0,0.0,34,0.00,,---,0.00,VWS V14.01,2013-06-16 10:22:00,
2013-06-16 05:28:00,62.4,33.7,26.99,ESE,114,0.0,2.2,34,0.00,,---,0.00,VWS V14.01,2013-06-16 10:28:00,
2013-06-16 05:33:00,62.1,33.4,26.99,ESE,114,0.0,0.0,34,0.00,,---,0.00,VWS V14.01,2013-06-16 10:33:00,
2013-06-16 05:38:00,61.7,33.1,26.99,ESE,114,0.0,0.0,34,0.00,,---,0.00,VWS V14.01,2013-06-16 10:38:00,
2013-06-16 05:43:00,61.9,34.0,26.99,ESE,111,0.0,0.0,35,0.00,,---,0.00,VWS V14.01,2013-06-16 10:43:00,
2013-06-16 05:48:00,61.7,33.8,26.99,ESE,111,0.0,0.0,35,0.00,,---,0.00,VWS V14.01,2013-06-16 10:48:00,
2013-06-16 05:54:00,61.5,33.6,26.99,ESE,111,0.0,0.0,35,0.00,,---,0.00,VWS V14.01,2013-06-16 10:54:00,
2013-06-16 05:59:00,61.2,33.3,26.99,ESE,111,0.0,0.0,35,0.00,,---,0.00,VWS V14.01,2013-06-16 10:59:00,
2013-06-16 06:04:00,61.3,33.5,26.99,NNE,31,0.0,0.0,35,0.00,,---,0.00,VWS V14.01,2013-06-16 11:04:00,
2013-06-16 06:09:00,61.7,33.8,26.99,NE,48,3.6,3.6,35,0.00,,---,0.00,VWS V14.01,2013-06-16 11:09:00,
2013-06-16 06:14:00,61.9,34.0,26.99,NE,50,2.7,4.0,35,0.00,,---,0.00,VWS V14.01,2013-06-16 11:14:00,
2013-06-16 06:19:00,61.7,33.8,26.99,NE,50,0.0,0.0,35,0.00,,---,0.00,VWS V14.01,2013-06-16 11:19:00,
2013-06-16 06:24:00,61.7,33.8,26.99,NE,50,0.0,0.0,35,0.00,,---,0.00,VWS V14.01,2013-06-16 11:24:00,
2013-06-16 06:29:00,61.7,33.8,26.99,NE,50,0.0,0.0,35,0.00,,---,0.00,VWS V14.01,2013-06-16 11:29:00,
2013-06-16 06:34:00,61.7,33.8,26.99,NE,50,0.0,0.0,35,0.00,,---,0.00,VWS V14.01,2013-06-16 11:34:00,
2013-06-16 06:39:00,61.9,34.0,26.99,NE,50,0.0,0.0,35,0.00,,---,0.00,VWS V14.01,2013-06-16 11:39:00,
2013-06-16 06:44:00,62.2,34.3,26.96,NE,50,0.0,0.0,35,0.00,,---,0.00,VWS V14.01,2013-06-16 11:44:00,
2013-06-16 06:49:00,62.8,34.0,26.96,NE,50,0.0,0.0,34,0.00,,---,0.00,VWS V14.01,2013-06-16 11:49:00,
2013-06-16 06:54:00,63.0,34.2,26.96,NE,50,2.7,2.7,34,0.00,,---,0.00,VWS V14.01,2013-06-16 11:54:00,
2013-06-16 06:59:00,64.2,35.3,26.96,NE,47,2.2,2.2,34,0.00,,---,0.00,VWS V14.01,2013-06-16 11:59:00,
2013-06-16 07:04:00,65.3,35.5,26.96,NE,51,2.7,3.1,33,0.00,,---,0.00,VWS V14.01,2013-06-16 12:04:00,
2013-06-16 07:09:00,66.7,36.8,26.96,NE,51,0.0,0.0,33,0.00,,---,0.00,VWS V14.01,2013-06-16 12:09:00,
2013-06-16 07:14:00,67.8,37.7,26.96,NE,51,0.0,0.0,33,0.00,,---,0.00,VWS V14.01,2013-06-16 12:14:00,
2013-06-16 07:19:00,68.7,38.5,26.96,NE,54,0.0,0.0,33,0.00,,---,0.00,VWS V14.01,2013-06-16 12:19:00,
2013-06-16 07:24:00,69.6,39.3,26.96,NE,54,0.0,0.0,33,0.00,,---,0.00,VWS V14.01,2013-06-16 12:24:00,
2013-06-16 07:29:00,68.4,38.2,26.99,SW,217,3.6,3.6,33,0.00,,---,0.00,VWS V14.01,2013-06-16 12:29:00,
2013-06-16 07:35:00,68.5,38.3,26.99,South,184,3.6,3.6,33,0.00,,---,0.00,VWS V14.01,2013-06-16 12:35:00,
2013-06-16 07:40:00,67.5,37.4,26.99,SW,226,2.7,4.0,33,0.00,,---,0.00,VWS V14.01,2013-06-16 12:40:00,
2013-06-16 07:44:00,66.9,36.9,26.99,SSW,207,2.2,2.2,33,0.00,,---,0.00,VWS V14.01,2013-06-16 12:44:00,
2013-06-16 07:49:00,66.4,36.4,26.99,SSW,205,2.7,4.9,33,0.00,,---,0.00,VWS V14.01,2013-06-16 12:49:00,
2013-06-16 07:54:00,66.0,36.1,26.99,SSW,206,3.1,3.1,33,0.00,,---,0.00,VWS V14.01,2013-06-16 12:54:00,
2013-06-16 08:00:00,66.2,36.3,26.99,SSW,205,0.0,0.0,33,0.00,,---,0.00,VWS V14.01,2013-06-16 13:00:00,
2013-06-16 08:05:00,66.0,36.1,26.99,SSW,205,0.0,0.0,33,0.00,,---,0.00,VWS V14.01,2013-06-16 13:05:00,
2013-06-16 08:10:00,66.6,36.6,26.99,SSW,205,0.0,0.0,33,0.00,,---,0.00,VWS V14.01,2013-06-16 13:10:00,
2013-06-16 08:15:00,69.6,39.3,26.99,SSW,205,0.0,0.0,33,0.00,,---,0.00,VWS V14.01,2013-06-16 13:15:00,
2013-06-16 08:20:00,72.1,40.7,26.99,SSW,205,0.0,0.0,32,0.00,,---,0.00,VWS V14.01,2013-06-16 13:20:00,
2013-06-16 08:25:00,72.1,40.7,26.99,SE,145,3.6,4.0,32,0.00,,---,0.00,VWS V14.01,2013-06-16 13:25:00,
2013-06-16 08:30:00,70.5,39.3,26.99,SE,130,2.7,2.7,32,0.00,,---,0.00,VWS V14.01,2013-06-16 13:30:00,
2013-06-16 08:35:00,70.3,39.1,26.99,SE,132,2.7,3.1,32,0.00,,---,0.00,VWS V14.01,2013-06-16 13:35:00,
2013-06-16 08:40:00,70.0,38.8,26.99,SE,132,2.7,2.7,32,0.00,,---,0.00,VWS V14.01,2013-06-16 13:40:00,
2013-06-16 08:45:00,70.2,39.0,26.99,SE,131,3.6,4.0,32,0.00,,---,0.00,VWS V14.01,2013-06-16 13:45:00,
2013-06-16 08:50:00,69.4,39.1,26.99,SE,131,3.1,3.1,33,0.00,,---,0.00,VWS V14.01,2013-06-16 13:50:00,
2013-06-16 08:55:00,69.6,39.3,26.99,SE,131,3.1,3.6,33,0.00,,---,0.00,VWS V14.01,2013-06-16 13:55:00,
2013-06-16 09:00:00,73.4,41.0,26.99,SE,125,2.7,3.1,31,0.00,,---,0.00,VWS V14.01,2013-06-16 14:00:00,
2013-06-16 09:05:00,73.8,41.3,26.99,SE,136,3.6,3.6,31,0.00,,---,0.00,VWS V14.01,2013-06-16 14:05:00,
2013-06-16 09:10:00,74.5,41.9,26.99,SE,131,2.2,3.1,31,0.00,,---,0.00,VWS V14.01,2013-06-16 14:10:00,
2013-06-16 09:16:00,75.6,42.8,26.99,SE,124,2.7,2.7,31,0.00,,---,0.00,VWS V14.01,2013-06-16 14:16:00,
2013-06-16 09:21:00,78.8,44.8,26.99,SE,124,2.2,2.2,30,0.00,,---,0.00,VWS V14.01,2013-06-16 14:21:00,
2013-06-16 09:26:00,77.7,44.7,26.99,SE,124,3.1,3.1,31,0.00,,---,0.00,VWS V14.01,2013-06-16 14:26:00,
2013-06-16 09:31:00,79.0,44.9,26.99,SE,131,2.7,2.7,30,0.00,,---,0.00,VWS V14.01,2013-06-16 14:31:00,
2013-06-16 09:36:00,82.2,47.7,26.99,SE,140,3.6,3.6,30,0.00,,---,0.00,VWS V14.01,2013-06-16 14:36:00,
2013-06-16 09:41:00,80.8,46.5,26.99,SSE,155,2.7,4.0,30,0.00,,---,0.00,VWS V14.01,2013-06-16 14:41:00,
2013-06-16 09:46:00,83.7,48.1,26.99,SSE,155,0.0,0.0,29,0.00,,---,0.00,VWS V14.01,2013-06-16 14:46:00,
2013-06-16 09:51:00,83.8,48.2,26.99,SSE,155,0.0,0.0,29,0.00,,---,0.00,VWS V14.01,2013-06-16 14:51:00,
2013-06-16 09:57:00,82.6,47.1,26.99,SE,135,4.0,4.0,29,0.00,,---,0.00,VWS V14.01,2013-06-16 14:57:00,
2013-06-16 10:02:00,81.9,47.4,26.99,SSE,160,2.2,2.2,30,0.00,,---,0.00,VWS V14.01,2013-06-16 15:02:00,
2013-06-16 10:07:00,83.3,47.8,26.99,SE,137,0.0,0.0,29,0.00,,---,0.00,VWS V14.01,2013-06-16 15:07:00,
2013-06-16 10:12:00,80.8,46.5,26.99,SSW,209,2.7,4.0,30,0.00,,---,0.00,VWS V14.01,2013-06-16 15:12:00,
2013-06-16 10:17:00,81.7,47.3,26.99,South,187,0.0,0.0,30,0.00,,---,0.00,VWS V14.01,2013-06-16 15:17:00,
2013-06-16 10:22:00,82.2,47.7,26.99,NE,43,0.0,0.0,30,0.00,,---,0.00,VWS V14.01,2013-06-16 15:22:00,
2013-06-16 10:27:00,82.2,47.7,26.99,SE,142,3.6,3.6,30,0.00,,---,0.00,VWS V14.01,2013-06-16 15:27:00,
2013-06-16 10:32:00,83.3,47.8,26.99,SSE,159,3.6,3.6,29,0.00,,---,0.00,VWS V14.01,2013-06-16 15:32:00,
2013-06-16 10:37:00,87.1,51.0,26.99,SE,131,2.7,4.0,29,0.00,,---,0.00,VWS V14.01,2013-06-16 15:37:00,
2013-06-16 10:42:00,88.3,51.1,26.99,South,182,2.7,2.7,28,0.00,,---,0.00,VWS V14.01,2013-06-16 15:42:00,
2013-06-16 10:47:00,86.7,50.7,26.99,South,182,0.0,0.0,29,0.00,,---,0.00,VWS V14.01,2013-06-16 15:47:00,
2013-06-16 10:52:00,85.3,49.5,26.99,South,182,0.0,0.0,29,0.00,,---,0.00,VWS V14.01,2013-06-16 15:52:00,
2013-06-16 10:57:00,82.6,47.1,26.99,SSE,147,2.7,2.7,29,0.00,,---,0.00,VWS V14.01,2013-06-16 15:57:00,
2013-06-16 11:02:00,81.7,47.3,27.02,ESE,113,0.0,0.0,30,0.00,,---,0.00,VWS V14.01,2013-06-16 16:02:00,
2013-06-16 11:07:00,81.3,47.0,27.02,ESE,114,0.0,0.0,30,0.00,,---,0.00,VWS V14.01,2013-06-16 16:07:00,
2013-06-16 11:12:00,80.2,46.0,27.02,NNE,22,2.7,3.1,30,0.00,,---,0.00,VWS V14.01,2013-06-16 16:12:00,
2013-06-16 11:17:00,80.1,45.9,27.02,NNE,27,2.7,3.1,30,0.00,,---,0.00,VWS V14.01,2013-06-16 16:17:00,
2013-06-16 11:22:00,79.5,45.4,27.02,WNW,297,2.7,4.0,30,0.00,,---,0.00,VWS V14.01,2013-06-16 16:22:00,
2013-06-16 11:27:00,81.7,47.3,27.02,NE,43,0.0,0.0,30,0.00,,---,0.00,VWS V14.01,2013-06-16 16:27:00,
2013-06-16 11:32:00,83.3,47.8,27.02,ENE,77,0.0,0.0,29,0.00,,---,0.00,VWS V14.01,2013-06-16 16:32:00,
2013-06-16 11:37:00,82.8,47.3,27.02,ENE,59,3.1,3.1,29,0.00,,---,0.00,VWS V14.01,2013-06-16 16:37:00,
2013-06-16 11:42:00,84.7,49.0,27.02,East,83,2.2,2.7,29,0.00,,---,0.00,VWS V14.01,2013-06-16 16:42:00,
2013-06-16 11:47:00,87.3,51.2,27.02,SE,125,2.2,2.7,29,0.00,,---,0.00,VWS V14.01,2013-06-16 16:47:00,
2013-06-16 11:52:00,87.3,51.2,27.02,East,99,2.7,2.7,29,0.00,,---,0.00,VWS V14.01,2013-06-16 16:52:00,
2013-06-16 11:57:00,89.6,52.2,27.02,ESE,113,2.7,2.7,28,0.00,,---,0.00,VWS V14.01,2013-06-16 16:57:00,
2013-06-16 12:02:00,89.4,52.1,26.99,ESE,110,3.6,3.6,28,0.00,,---,0.00,VWS V14.01,2013-06-16 17:02:00,
2013-06-16 12:07:00,90.1,52.7,26.99,East,96,0.0,3.1,28,0.00,,---,0.00,VWS V14.01,2013-06-16 17:07:00,
2013-06-16 12:12:00,87.6,51.5,26.99,SE,145,6.3,8.3,29,0.00,,---,0.00,VWS V14.01,2013-06-16 17:12:00,
2013-06-16 12:17:00,88.7,51.4,26.99,ESE,105,2.7,2.7,28,0.00,,---,0.00,VWS V14.01,2013-06-16 17:17:00,
2013-06-16 12:22:00,88.9,51.6,26.99,SSE,151,3.1,3.6,28,0.00,,---,0.00,VWS V14.01,2013-06-16 17:22:00,
2013-06-16 12:27:00,88.3,51.1,26.99,SSE,150,4.0,6.3,28,0.00,,---,0.00,VWS V14.01,2013-06-16 17:27:00,
2013-06-16 12:32:00,88.2,51.0,26.99,SE,128,0.0,3.6,28,0.00,,---,0.00,VWS V14.01,2013-06-16 17:32:00,
2013-06-16 12:37:00,87.8,50.7,26.99,South,171,6.3,6.3,28,0.00,,---,0.00,VWS V14.01,2013-06-16 17:37:00,
2013-06-16 12:42:00,86.7,50.7,26.99,South,171,4.0,6.3,29,0.00,,---,0.00,VWS V14.01,2013-06-16 17:42:00,
2013-06-16 12:47:00,88.3,51.1,26.96,East,79,2.7,3.6,28,0.00,,---,0.00,VWS V14.01,2013-06-16 17:47:00,
2013-06-16 12:52:00,88.2,51.0,26.96,SE,130,4.0,4.0,28,0.00,,---,0.00,VWS V14.01,2013-06-16 17:52:00,
2013-06-16 12:57:00,90.1,52.7,26.96,SE,135,3.6,3.6,28,0.00,,---,0.00,VWS V14.01,2013-06-16 17:57:00,
2013-06-16 13:02:00,88.7,51.4,26.96,SSE,162,2.7,3.1,28,0.00,,---,0.00,VWS V14.01,2013-06-16 18:02:00,
2013-06-16 13:07:00,90.7,53.1,26.96,ESE,120,3.6,4.0,28,0.00,,---,0.00,VWS V14.01,2013-06-16 18:07:00,
2013-06-16 13:12:00,91.6,52.9,26.96,SE,126,2.7,2.7,27,0.00,,---,0.00,VWS V14.01,2013-06-16 18:12:00,
2013-06-16 13:17:00,91.2,53.6,26.96,SE,128,2.2,3.1,28,0.00,,---,0.00,VWS V14.01,2013-06-16 18:17:00,
2013-06-16 13:22:00,91.9,53.2,26.96,SSE,168,2.7,5.4,27,0.00,,---,0.00,VWS V14.01,2013-06-16 18:22:00,
2013-06-16 13:27:00,91.2,53.6,26.96,SSE,160,8.1,8.1,28,0.00,,---,0.00,VWS V14.01,2013-06-16 18:27:00,
2013-06-16 13:32:00,90.1,52.7,26.96,SE,136,4.0,4.9,28,0.00,,---,0.00,VWS V14.01,2013-06-16 18:32:00,
2013-06-16 13:37:00,91.2,53.6,26.96,SE,146,3.1,4.0,28,0.00,,---,0.00,VWS V14.01,2013-06-16 18:37:00,
2013-06-16 13:42:00,91.2,53.6,26.96,East,101,2.7,2.7,28,0.00,,---,0.00,VWS V14.01,2013-06-16 18:42:00,
2013-06-16 13:47:00,91.6,52.9,26.96,SE,134,5.4,7.6,27,0.00,,---,0.00,VWS V14.01,2013-06-16 18:47:00,
2013-06-16 13:52:00,90.5,53.0,26.96,SE,136,3.6,3.6,28,0.00,,---,0.00,VWS V14.01,2013-06-16 18:52:00,
2013-06-16 13:57:00,88.7,51.4,26.96,ESE,114,6.3,6.3,28,0.00,,---,0.00,VWS V14.01,2013-06-16 18:57:00,
2013-06-16 14:02:00,90.9,53.3,26.96,SE,139,7.6,7.6,28,0.00,,---,0.00,VWS V14.01,2013-06-16 19:02:00,
2013-06-16 14:07:00,88.7,51.4,26.96,SE,127,4.9,4.9,28,0.00,,---,0.00,VWS V14.01,2013-06-16 19:07:00,
2013-06-16 14:12:00,91.4,52.8,26.96,ESE,123,0.0,2.2,27,0.00,,---,0.00,VWS V14.01,2013-06-16 19:12:00,
2013-06-16 14:17:00,89.6,52.2,26.96,ESE,121,5.4,5.4,28,0.00,,---,0.00,VWS V14.01,2013-06-16 19:17:00,
2013-06-16 14:22:00,89.4,52.1,26.96,SE,139,5.4,5.8,28,0.00,,---,0.00,VWS V14.01,2013-06-16 19:22:00,
2013-06-16 14:27:00,91.9,53.2,26.96,East,90,2.2,4.0,27,0.00,,---,0.00,VWS V14.01,2013-06-16 19:27:00,
2013-06-16 14:32:00,93.2,54.3,26.96,SE,139,3.6,3.6,27,0.00,,---,0.00,VWS V14.01,2013-06-16 19:32:00,
2013-06-16 14:37:00,92.7,53.8,26.96,ESE,109,2.7,2.7,27,0.00,,---,0.00,VWS V14.01,2013-06-16 19:37:00,
2013-06-16 14:42:00,93.0,54.1,26.96,East,90,3.1,3.6,27,0.00,,---,0.00,VWS V14.01,2013-06-16 19:42:00,
2013-06-16 14:47:00,93.2,54.3,26.96,SE,139,4.0,4.0,27,0.00,,---,0.00,VWS V14.01,2013-06-16 19:47:00,
2013-06-16 14:52:00,90.3,52.8,26.96,ESE,111,3.6,4.5,28,0.00,,---,0.00,VWS V14.01,2013-06-16 19:52:00,
2013-06-16 14:57:00,89.6,52.2,26.96,ENE,65,3.6,5.8,28,0.00,,---,0.00,VWS V14.01,2013-06-16 19:57:00,
2013-06-16 15:02:00,92.3,53.5,26.96,East,93,5.8,5.8,27,0.00,,---,0.00,VWS V14.01,2013-06-16 20:02:00,
2013-06-16 15:07:00,88.9,51.6,26.96,East,90,2.7,3.1,28,0.00,,---,0.00,VWS V14.01,2013-06-16 20:07:00,
2013-06-16 15:12:00,90.9,53.3,26.96,East,92,3.1,3.1,28,0.00,,---,0.00,VWS V14.01,2013-06-16 20:12:00,
2013-06-16 15:17:00,89.6,52.2,26.96,East,92,2.2,3.1,28,0.00,,---,0.00,VWS V14.01,2013-06-16 20:17:00,
2013-06-16 15:22:00,93.6,54.6,26.96,ESE,114,0.0,2.7,27,0.00,,---,0.00,VWS V14.01,2013-06-16 20:22:00,
2013-06-16 15:27:00,91.0,53.4,26.96,ESE,103,3.6,3.6,28,0.00,,---,0.00,VWS V14.01,2013-06-16 20:27:00,
2013-06-16 15:32:00,90.5,53.0,26.93,ESE,107,4.9,4.9,28,0.00,,---,0.00,VWS V14.01,2013-06-16 20:32:00,
2013-06-16 15:37:00,91.6,52.9,26.93,SE,136,5.4,5.8,27,0.00,,---,0.00,VWS V14.01,2013-06-16 20:37:00,
2013-06-16 15:42:00,86.7,50.7,26.93,ESE,115,3.6,6.3,29,0.00,,---,0.00,VWS V14.01,2013-06-16 20:42:00,
2013-06-16 15:47:00,84.7,49.0,26.93,ESE,120,4.0,4.0,29,0.00,,---,0.00,VWS V14.01,2013-06-16 20:47:00,
2013-06-16 15:52:00,85.1,49.3,26.93,ESE,119,5.4,5.4,29,0.00,,---,0.00,VWS V14.01,2013-06-16 20:52:00,
2013-06-16 15:57:00,86.9,50.8,26.93,ESE,107,2.7,2.7,29,0.00,,---,0.00,VWS V14.01,2013-06-16 20:57:00,
2013-06-16 16:02:00,86.4,50.4,26.93,ESE,106,4.0,5.8,29,0.00,,---,0.00,VWS V14.01,2013-06-16 21:02:00,
2013-06-16 16:07:00,84.7,49.0,26.93,ESE,111,4.0,4.0,29,0.00,,---,0.00,VWS V14.01,2013-06-16 21:07:00,
2013-06-16 16:12:00,84.6,48.8,26.93,East,88,5.4,5.4,29,0.00,,---,0.00,VWS V14.01,2013-06-16 21:12:00,
2013-06-16 16:17:00,83.8,48.2,26.93,ESE,114,4.0,4.0,29,0.00,,---,0.00,VWS V14.01,2013-06-16 21:17:00,
2013-06-16 16:22:00,83.5,47.9,26.93,ENE,76,4.9,5.4,29,0.00,,---,0.00,VWS V14.01,2013-06-16 21:22:00,
2013-06-16 16:27:00,82.2,47.7,26.93,ESE,110,4.0,4.0,30,0.00,,---,0.00,VWS V14.01,2013-06-16 21:27:00,
2013-06-16 16:32:00,81.5,47.1,26.93,ESE,117,4.0,5.4,30,0.00,,---,0.00,VWS V14.01,2013-06-16 21:32:00,
2013-06-16 16:37:00,81.3,47.0,26.93,SE,124,5.4,5.4,30,0.00,,---,0.00,VWS V14.01,2013-06-16 21:37:00,
2013-06-16 16:42:00,81.0,46.6,26.93,SE,127,5.4,5.4,30,0.00,,---,0.00,VWS V14.01,2013-06-16 21:42:00,
2013-06-16 16:47:00,80.8,46.5,26.90,SE,125,4.0,4.0,30,0.00,,---,0.00,VWS V14.01,2013-06-16 21:47:00,
2013-06-16 16:52:00,80.4,46.2,26.90,SE,125,5.8,6.3,30,0.00,,---,0.00,VWS V14.01,2013-06-16 21:52:00,
2013-06-16 16:57:00,80.4,46.2,26.90,SE,125,3.1,4.0,30,0.00,,---,0.00,VWS V14.01,2013-06-16 21:57:00,
2013-06-16 17:02:00,80.2,46.0,26.90,ESE,120,5.4,5.4,30,0.00,,---,0.00,VWS V14.01,2013-06-16 22:02:00,
2013-06-16 17:07:00,80.2,46.0,26.90,SE,126,5.4,5.4,30,0.00,,---,0.00,VWS V14.01,2013-06-16 22:07:00,
2013-06-16 17:12:00,80.1,45.9,26.90,ESE,119,4.9,5.4,30,0.00,,---,0.00,VWS V14.01,2013-06-16 22:12:00,
2013-06-16 17:17:00,80.1,45.9,26.90,ESE,110,4.0,4.0,30,0.00,,---,0.00,VWS V14.01,2013-06-16 22:17:00,
2013-06-16 17:22:00,79.2,45.1,26.90,SE,137,8.3,8.3,30,0.00,,---,0.00,VWS V14.01,2013-06-16 22:22:00,
2013-06-16 17:27:00,80.1,45.9,26.90,SE,133,7.6,7.6,30,0.00,,---,0.00,VWS V14.01,2013-06-16 22:27:00,
2013-06-16 17:32:00,80.6,46.3,26.87,SSE,153,6.3,7.6,30,0.00,,---,0.00,VWS V14.01,2013-06-16 22:32:00,
2013-06-16 17:37:00,81.1,46.8,26.87,ESE,123,25.5,25.5,30,0.00,,---,0.00,VWS V14.01,2013-06-16 22:37:00,
2013-06-16 17:42:00,81.1,46.8,26.87,South,169,15.4,15.4,30,0.00,,---,0.00,VWS V14.01,2013-06-16 22:42:00,
2013-06-16 17:47:00,81.9,47.4,26.90,South,172,8.7,8.7,30,0.00,,---,0.00,VWS V14.01,2013-06-16 22:47:00,
2013-06-16 17:52:00,81.3,47.0,26.90,SSE,162,9.6,16.3,30,0.00,,---,0.00,VWS V14.01,2013-06-16 22:52:00,
2013-06-16 17:57:00,81.1,46.8,26.90,SSE,166,8.7,8.7,30,0.00,,---,0.00,VWS V14.01,2013-06-16 22:57:00,
2013-06-16 18:02:00,81.1,46.8,26.93,SSW,206,8.3,8.3,30,0.00,,---,0.00,VWS V14.01,2013-06-16 23:02:00,
2013-06-16 18:07:00,81.5,47.1,26.93,SSW,205,6.3,6.3,30,0.00,,---,0.00,VWS V14.01,2013-06-16 23:07:00,
2013-06-16 18:12:00,80.2,46.0,26.93,North,357,4.0,4.0,30,0.00,,---,0.00,VWS V14.01,2013-06-16 23:12:00,
2013-06-16 18:17:00,72.3,40.8,26.96,NE,41,8.7,8.7,32,0.00,,---,0.00,VWS V14.01,2013-06-16 23:17:00,
2013-06-16 18:22:00,72.1,40.7,26.96,WNW,302,3.6,3.6,32,0.00,,---,0.00,VWS V14.01,2013-06-16 23:22:00,
2013-06-16 18:27:00,71.8,40.4,26.96,NE,34,4.9,4.9,32,0.00,,---,0.00,VWS V14.01,2013-06-16 23:27:00,
2013-06-16 18:32:00,71.1,39.7,26.96,NNE,14,6.3,6.3,32,0.00,,---,0.00,VWS V14.01,2013-06-16 23:32:00,
2013-06-16 18:37:00,69.8,38.6,26.96,NE,51,5.4,8.7,32,0.00,,---,0.00,VWS V14.01,2013-06-16 23:37:00,
2013-06-16 18:42:00,69.3,39.0,26.96,NE,44,5.8,6.3,33,0.00,,---,0.00,VWS V14.01,2013-06-16 23:42:00,
2013-06-16 18:47:00,66.9,36.9,26.96,NE,55,11.0,11.0,33,0.00,,---,0.00,VWS V14.01,2013-06-16 23:47:00,
2013-06-16 18:52:00,66.4,36.4,26.96,East,98,12.8,12.8,33,0.00,,---,0.00,VWS V14.01,2013-06-16 23:52:00,
2013-06-16 18:57:00,66.7,36.8,26.96,ENE,62,10.5,10.5,33,0.00,,---,0.00,VWS V14.01,2013-06-16 23:57:00,
2013-06-16 19:02:00,66.4,36.4,26.93,NE,52,8.1,11.0,33,0.00,,---,0.00,VWS V14.01,2013-06-17 00:02:00,
2013-06-16 19:07:00,66.6,36.6,26.93,NE,42,8.7,8.7,33,0.00,,---,0.00,VWS V14.01,2013-06-17 00:07:00,
2013-06-16 19:12:00,66.6,36.6,26.93,NE,53,11.0,11.0,33,0.00,,---,0.00,VWS V14.01,2013-06-17 00:12:00,
2013-06-16 19:17:00,66.6,36.6,26.96,ENE,59,12.8,12.8,33,0.00,,---,0.00,VWS V14.01,2013-06-17 00:17:00,
2013-06-16 19:22:00,66.7,36.8,26.96,NNE,28,7.6,8.7,33,0.00,,---,0.00,VWS V14.01,2013-06-17 00:22:00,
2013-06-16 19:27:00,66.9,36.9,26.96,NE,37,11.0,11.0,33,0.00,,---,0.00,VWS V14.01,2013-06-17 00:27:00,
2013-06-16 19:32:00,67.6,37.5,26.96,ENE,68,4.0,6.3,33,0.00,,---,0.00,VWS V14.01,2013-06-17 00:32:00,
2013-06-16 19:37:00,67.6,37.5,26.96,ENE,63,8.3,8.3,33,0.00,,---,0.00,VWS V14.01,2013-06-17 00:37:00,
2013-06-16 19:42:00,67.5,37.4,26.96,NE,46,4.0,4.0,33,0.00,,---,0.00,VWS V14.01,2013-06-17 00:42:00,
2013-06-16 19:47:00,66.9,36.9,26.99,NE,38,8.3,11.0,33,0.00,,---,0.00,VWS V14.01,2013-06-17 00:47:00,
2013-06-16 19:52:00,66.6,36.6,26.99,NE,50,6.3,6.3,33,0.00,,---,0.00,VWS V14.01,2013-06-17 00:52:00,
2013-06-16 19:57:00,65.5,35.6,26.99,NNE,29,8.1,8.1,33,0.00,,---,0.00,VWS V14.01,2013-06-17 00:57:00,
2013-06-16 20:02:00,64.8,35.0,27.02,NE,43,5.8,7.6,33,0.00,,---,0.00,VWS V14.01,2013-06-17 01:02:00,
2013-06-16 20:07:00,64.9,35.2,27.02,NE,47,6.3,6.3,33,0.00,,---,0.00,VWS V14.01,2013-06-17 01:07:00,
2013-06-16 20:12:00,65.1,35.3,27.02,NE,35,5.4,6.3,33,0.00,,---,0.00,VWS V14.01,2013-06-17 01:12:00,
2013-06-16 20:17:00,65.1,35.3,27.05,NE,49,7.6,7.6,33,0.00,,---,0.00,VWS V14.01,2013-06-17 01:17:00,
2013-06-16 20:22:00,64.9,35.2,27.05,NE,45,7.6,7.6,33,0.00,,---,0.00,VWS V14.01,2013-06-17 01:22:00,
2013-06-16 20:27:00,64.9,35.2,27.05,NW,326,6.3,9.6,33,0.00,,---,0.00,VWS V14.01,2013-06-17 01:27:00,
2013-06-16 20:32:00,64.8,35.0,27.05,NE,36,4.0,6.7,33,0.00,,---,0.00,VWS V14.01,2013-06-17 01:32:00,
2013-06-16 20:37:00,64.2,35.3,27.05,NE,37,7.6,7.6,34,0.00,,---,0.00,VWS V14.01,2013-06-17 01:37:00,
2013-06-16 20:42:00,63.7,34.8,27.05,NE,45,4.0,4.0,34,0.00,,---,0.00,VWS V14.01,2013-06-17 01:42:00,
2013-06-16 20:47:00,63.5,34.7,27.05,NE,41,5.4,5.8,34,0.00,,---,0.00,VWS V14.01,2013-06-17 01:47:00,
2013-06-16 20:52:00,63.5,34.7,27.05,NNE,20,8.1,8.1,34,0.00,,---,0.00,VWS V14.01,2013-06-17 01:52:00,
2013-06-16 20:57:00,63.5,34.7,27.05,ENE,61,5.8,5.8,34,0.00,,---,0.00,VWS V14.01,2013-06-17 01:57:00,
2013-06-16 21:02:00,63.3,34.5,27.02,East,82,3.1,3.1,34,0.00,,---,0.00,VWS V14.01,2013-06-17 02:02:00,
2013-06-16 21:07:00,63.1,34.3,27.02,ESE,102,3.6,3.6,34,0.00,,---,0.00,VWS V14.01,2013-06-17 02:07:00,
2013-06-16 21:12:00,62.8,34.0,27.02,ESE,120,4.9,4.9,34,0.00,,---,0.00,VWS V14.01,2013-06-17 02:12:00,
2013-06-16 21:17:00,62.6,33.9,26.96,SE,133,6.7,6.7,34,0.00,,---,0.00,VWS V14.01,2013-06-17 02:17:00,
2013-06-16 21:21:00,62.6,33.9,26.96,SE,135,5.8,6.7,34,0.00,,---,0.00,VWS V14.01,2013-06-17 02:21:00,
2013-06-16 21:26:00,62.4,33.7,26.96,SE,130,4.9,5.8,34,0.00,,---,0.00,VWS V14.01,2013-06-17 02:26:00,
2013-06-16 21:31:00,62.2,33.5,26.96,SE,132,6.3,6.3,34,0.00,,---,0.00,VWS V14.01,2013-06-17 02:31:00,
2013-06-16 21:36:00,62.2,33.5,26.96,SE,134,5.4,5.4,34,0.00,,---,0.00,VWS V14.01,2013-06-17 02:36:00,
2013-06-16 21:41:00,62.1,33.4,26.96,SE,131,5.8,5.8,34,0.00,,---,0.00,VWS V14.01,2013-06-17 02:41:00,
2013-06-16 21:46:00,62.1,33.4,26.99,SE,128,4.9,4.9,34,0.00,,---,0.00,VWS V14.01,2013-06-17 02:46:00,
2013-06-16 21:51:00,61.9,33.2,26.99,SE,125,5.8,5.8,34,0.00,,---,0.00,VWS V14.01,2013-06-17 02:51:00,
2013-06-16 21:56:00,61.9,33.2,26.99,SE,140,4.0,6.3,34,0.00,,---,0.00,VWS V14.01,2013-06-17 02:56:00,
2013-06-16 22:01:00,61.9,33.2,26.99,SE,133,4.0,4.0,34,0.00,,---,0.00,VWS V14.01,2013-06-17 03:01:00,
2013-06-16 22:06:00,61.9,33.2,26.99,SE,135,5.4,5.8,34,0.00,,---,0.00,VWS V14.01,2013-06-17 03:06:00,
2013-06-16 22:11:00,62.1,33.4,26.99,SE,127,5.4,5.4,34,0.00,,---,0.00,VWS V14.01,2013-06-17 03:11:00,
2013-06-16 22:16:00,62.1,33.4,26.99,SE,125,3.6,5.4,34,0.00,,---,0.00,VWS V14.01,2013-06-17 03:16:00,
2013-06-16 22:21:00,61.9,33.2,26.99,SE,138,4.0,4.0,34,0.00,,---,0.00,VWS V14.01,2013-06-17 03:21:00,
2013-06-16 22:26:00,61.7,33.1,26.99,SE,137,2.7,4.0,34,0.00,,---,0.00,VWS V14.01,2013-06-17 03:26:00,
2013-06-16 22:31:00,61.5,32.9,26.99,SE,137,4.0,4.0,34,0.00,,---,0.00,VWS V14.01,2013-06-17 03:31:00,
2013-06-16 22:36:00,61.2,32.6,26.99,SE,137,2.2,2.2,34,0.00,,---,0.00,VWS V14.01,2013-06-17 03:36:00,
2013-06-16 22:41:00,61.0,32.4,26.99,SE,137,2.7,2.7,34,0.00,,---,0.00,VWS V14.01,2013-06-17 03:41:00,
2013-06-16 22:46:00,60.8,32.3,26.99,SE,137,2.2,2.2,34,0.00,,---,0.00,VWS V14.01,2013-06-17 03:46:00,
2013-06-16 22:51:00,60.6,32.8,26.99,SE,137,2.2,2.2,35,0.00,,---,0.00,VWS V14.01,2013-06-17 03:51:00,
2013-06-16 22:56:00,60.6,32.8,26.99,SE,137,2.2,2.2,35,0.00,,---,0.00,VWS V14.01,2013-06-17 03:56:00,
2013-06-16 23:01:00,60.6,32.8,26.99,SE,137,2.7,2.7,35,0.00,,---,0.00,VWS V14.01,2013-06-17 04:01:00,
2013-06-16 23:06:00,60.4,32.7,26.99,SE,137,2.2,3.6,35,0.00,,---,0.00,VWS V14.01,2013-06-17 04:06:00,
2013-06-16 23:11:00,60.4,32.7,26.99,SE,137,2.7,2.7,35,0.00,,---,0.00,VWS V14.01,2013-06-17 04:11:00,
2013-06-16 23:17:00,60.1,33.1,26.96,SE,137,0.0,0.0,36,0.00,,---,0.00,VWS V14.01,2013-06-17 04:17:00,
2013-06-16 23:22:00,59.7,32.7,26.96,SE,137,0.0,0.0,36,0.00,,---,0.00,VWS V14.01,2013-06-17 04:22:00,
2013-06-16 23:27:00,59.7,32.7,26.96,SE,137,0.0,0.0,36,0.00,,---,0.00,VWS V14.01,2013-06-17 04:27:00,
2013-06-16 23:32:00,59.5,32.6,26.96,SE,137,0.0,0.0,36,0.00,,---,0.00,VWS V14.01,2013-06-17 04:32:00,
2013-06-16 23:37:00,59.7,32.7,26.96,SE,137,0.0,0.0,36,0.00,,---,0.00,VWS V14.01,2013-06-17 04:37:00,
2013-06-16 23:42:00,59.7,32.7,26.96,SE,137,0.0,0.0,36,0.00,,---,0.00,VWS V14.01,2013-06-17 04:42:00,
2013-06-16 23:47:00,59.4,32.4,26.99,SE,137,0.0,0.0,36,0.00,,---,0.00,VWS V14.01,2013-06-17 04:47:00,
2013-06-16 23:52:00,59.4,33.1,26.99,SE,137,0.0,0.0,37,0.00,,---,0.00,VWS V14.01,2013-06-17 04:52:00,
2013-06-16 23:57:00,59.5,33.3,26.99,SE,137,0.0,0.0,37,0.00,,---,0.00,VWS V14.01,2013-06-17 04:57:00,